sensor_id;sensor_type;location;lat;lon;timestamp;P1;durP1;ratioP1;P2;durP2;ratioP2
22480;SDS011;11407;56.964;-2.212;2022-11-24T00:00:20;6.67;;;1.37;;
22480;SDS011;11407;56.964;-2.212;2022-11-24T00:02:46;3.43;;;1.20;;
22480;SDS011;11407;56.964;-2.212;2022-11-24T00:05:11;4.90;;;1.27;;
22480;SDS011;11407;56.964;-2.212;2022-11-24T00:07:37;8.43;;;1.50;;
22480;SDS011;11407;56.964;-2.212;2022-11-24T00:10:02;5.73;;;1.50;;
22480;SDS011;11407;56.964;-2.212;2022-11-24T00:12:28;4.03;;;1.40;;
22480;SDS011;11407;56.964;-2.212;2022-11-24T00:14:53;4.83;;;1.63;;
22480;SDS011;11407;56.964;-2.212;2022-11-24T00:17:19;4.70;;;1.10;;
22480;SDS011;11407;56.964;-2.212;2022-11-24T00:19:44;4.67;;;1.20;;
22480;SDS011;11407;56.964;-2.212;2022-11-24T00:22:09;5.40;;;1.43;;
22480;SDS011;11407;56.964;-2.212;2022-11-24T00:24:35;3.23;;;1.10;;
22480;SDS011;11407;56.964;-2.212;2022-11-24T00:27:00;5.40;;;1.40;;
22480;SDS011;11407;56.964;-2.212;2022-11-24T00:29:26;4.77;;;1.40;;
22480;SDS011;11407;56.964;-2.212;2022-11-24T00:31:51;4.07;;;1.20;;
22480;SDS011;11407;56.964;-2.212;2022-11-24T00:34:16;5.70;;;1.40;;
22480;SDS011;11407;56.964;-2.212;2022-11-24T00:36:42;4.23;;;0.90;;
22480;SDS011;11407;56.964;-2.212;2022-11-24T00:39:11;3.83;;;0.97;;
22480;SDS011;11407;56.964;-2.212;2022-11-24T00:41:37;4.47;;;1.07;;
22480;SDS011;11407;56.964;-2.212;2022-11-24T00:44:03;4.60;;;1.17;;
22480;SDS011;11407;56.964;-2.212;2022-11-24T00:46:29;5.17;;;1.10;;
22480;SDS011;11407;56.964;-2.212;2022-11-24T00:48:54;6.23;;;1.43;;
22480;SDS011;11407;56.964;-2.212;2022-11-24T00:51:21;5.17;;;1.00;;
22480;SDS011;11407;56.964;-2.212;2022-11-24T00:53:48;5.90;;;1.13;;
22480;SDS011;11407;56.964;-2.212;2022-11-24T00:56:14;6.13;;;1.17;;
22480;SDS011;11407;56.964;-2.212;2022-11-24T00:58:40;2.60;;;0.83;;
22480;SDS011;11407;56.964;-2.212;2022-11-24T01:01:07;4.13;;;1.10;;
22480;SDS011;11407;56.964;-2.212;2022-11-24T01:03:35;3.27;;;1.20;;
22480;SDS011;11407;56.964;-2.212;2022-11-24T01:06:04;3.30;;;1.17;;
22480;SDS011;11407;56.964;-2.212;2022-11-24T01:08:32;7.77;;;1.40;;
22480;SDS011;11407;56.964;-2.212;2022-11-24T01:11:05;3.33;;;0.97;;
22480;SDS011;11407;56.964;-2.212;2022-11-24T01:13:35;3.80;;;0.93;;
22480;SDS011;11407;56.964;-2.212;2022-11-24T01:16:01;3.27;;;1.03;;
22480;SDS011;11407;56.964;-2.212;2022-11-24T01:18:26;4.07;;;1.00;;
22480;SDS011;11407;56.964;-2.212;2022-11-24T01:20:51;3.70;;;0.97;;
22480;SDS011;11407;56.964;-2.212;2022-11-24T01:23:17;2.87;;;1.20;;
22480;SDS011;11407;56.964;-2.212;2022-11-24T01:25:42;5.97;;;1.60;;
22480;SDS011;11407;56.964;-2.212;2022-11-24T01:28:08;3.60;;;1.07;;
22480;SDS011;11407;56.964;-2.212;2022-11-24T01:30:33;2.63;;;0.90;;
22480;SDS011;11407;56.964;-2.212;2022-11-24T01:32:58;3.60;;;1.17;;
22480;SDS011;11407;56.964;-2.212;2022-11-24T01:35:24;3.87;;;0.90;;
22480;SDS011;11407;56.964;-2.212;2022-11-24T01:37:49;2.73;;;1.17;;
22480;SDS011;11407;56.964;-2.212;2022-11-24T01:40:14;3.43;;;0.93;;
22480;SDS011;11407;56.964;-2.212;2022-11-24T01:42:48;4.33;;;1.00;;
22480;SDS011;11407;56.964;-2.212;2022-11-24T01:45:29;6.30;;;1.10;;
22480;SDS011;11407;56.964;-2.212;2022-11-24T01:47:55;1.97;;;0.80;;
22480;SDS011;11407;56.964;-2.212;2022-11-24T01:50:21;5.87;;;1.27;;
22480;SDS011;11407;56.964;-2.212;2022-11-24T01:52:51;2.17;;;1.27;;
22480;SDS011;11407;56.964;-2.212;2022-11-24T01:55:20;4.70;;;0.90;;
22480;SDS011;11407;56.964;-2.212;2022-11-24T01:57:50;1.93;;;0.87;;
22480;SDS011;11407;56.964;-2.212;2022-11-24T02:00:21;3.83;;;0.93;;
22480;SDS011;11407;56.964;-2.212;2022-11-24T02:02:46;4.13;;;0.90;;
22480;SDS011;11407;56.964;-2.212;2022-11-24T02:05:20;3.10;;;1.00;;
22480;SDS011;11407;56.964;-2.212;2022-11-24T02:07:53;2.27;;;0.73;;
22480;SDS011;11407;56.964;-2.212;2022-11-24T02:10:21;3.10;;;0.90;;
22480;SDS011;11407;56.964;-2.212;2022-11-24T02:12:47;1.80;;;1.27;;
22480;SDS011;11407;56.964;-2.212;2022-11-24T02:15:16;2.60;;;1.07;;
22480;SDS011;11407;56.964;-2.212;2022-11-24T02:17:43;2.93;;;0.83;;
22480;SDS011;11407;56.964;-2.212;2022-11-24T02:20:09;6.87;;;2.23;;
22480;SDS011;11407;56.964;-2.212;2022-11-24T02:28:07;4.43;;;1.00;;
22480;SDS011;11407;56.964;-2.212;2022-11-24T02:30:36;6.80;;;1.93;;
22480;SDS011;11407;56.964;-2.212;2022-11-24T02:33:02;3.73;;;1.20;;
22480;SDS011;11407;56.964;-2.212;2022-11-24T02:35:28;5.00;;;1.60;;
22480;SDS011;11407;56.964;-2.212;2022-11-24T02:37:53;4.93;;;1.50;;
22480;SDS011;11407;56.964;-2.212;2022-11-24T02:40:20;5.33;;;1.20;;
22480;SDS011;11407;56.964;-2.212;2022-11-24T02:42:51;7.73;;;1.60;;
22480;SDS011;11407;56.964;-2.212;2022-11-24T02:45:28;7.20;;;1.40;;
22480;SDS011;11407;56.964;-2.212;2022-11-24T02:47:55;3.33;;;1.30;;
22480;SDS011;11407;56.964;-2.212;2022-11-24T02:50:21;4.40;;;1.40;;
22480;SDS011;11407;56.964;-2.212;2022-11-24T02:52:46;5.33;;;1.73;;
22480;SDS011;11407;56.964;-2.212;2022-11-24T02:55:12;5.83;;;1.63;;
22480;SDS011;11407;56.964;-2.212;2022-11-24T02:57:37;7.43;;;1.87;;
22480;SDS011;11407;56.964;-2.212;2022-11-24T03:00:03;4.27;;;1.50;;
22480;SDS011;11407;56.964;-2.212;2022-11-24T03:02:29;6.60;;;1.60;;
22480;SDS011;11407;56.964;-2.212;2022-11-24T03:04:54;3.47;;;1.33;;
22480;SDS011;11407;56.964;-2.212;2022-11-24T03:07:19;9.83;;;2.17;;
22480;SDS011;11407;56.964;-2.212;2022-11-24T03:09:45;10.33;;;1.90;;
22480;SDS011;11407;56.964;-2.212;2022-11-24T03:12:10;8.27;;;1.63;;
22480;SDS011;11407;56.964;-2.212;2022-11-24T03:14:35;5.50;;;1.30;;
22480;SDS011;11407;56.964;-2.212;2022-11-24T03:17:01;4.60;;;1.40;;
22480;SDS011;11407;56.964;-2.212;2022-11-24T03:19:26;6.90;;;1.47;;
22480;SDS011;11407;56.964;-2.212;2022-11-24T03:21:52;5.00;;;1.27;;
22480;SDS011;11407;56.964;-2.212;2022-11-24T03:24:17;7.07;;;1.80;;
22480;SDS011;11407;56.964;-2.212;2022-11-24T03:26:43;5.67;;;1.57;;
22480;SDS011;11407;56.964;-2.212;2022-11-24T03:29:08;5.67;;;1.40;;
22480;SDS011;11407;56.964;-2.212;2022-11-24T03:31:33;9.00;;;1.80;;
22480;SDS011;11407;56.964;-2.212;2022-11-24T03:33:59;7.30;;;1.87;;
22480;SDS011;11407;56.964;-2.212;2022-11-24T03:36:24;8.90;;;1.53;;
22480;SDS011;11407;56.964;-2.212;2022-11-24T03:38:50;5.73;;;1.43;;
22480;SDS011;11407;56.964;-2.212;2022-11-24T03:41:15;5.93;;;1.57;;
22480;SDS011;11407;56.964;-2.212;2022-11-24T03:43:41;4.60;;;1.87;;
22480;SDS011;11407;56.964;-2.212;2022-11-24T03:46:06;7.87;;;1.60;;
22480;SDS011;11407;56.964;-2.212;2022-11-24T03:48:32;6.37;;;1.30;;
22480;SDS011;11407;56.964;-2.212;2022-11-24T03:50:58;7.83;;;1.77;;
22480;SDS011;11407;56.964;-2.212;2022-11-24T03:53:26;5.77;;;1.40;;
22480;SDS011;11407;56.964;-2.212;2022-11-24T03:55:52;5.63;;;1.47;;
22480;SDS011;11407;56.964;-2.212;2022-11-24T03:58:18;10.70;;;1.80;;
22480;SDS011;11407;56.964;-2.212;2022-11-24T04:00:44;7.60;;;1.77;;
22480;SDS011;11407;56.964;-2.212;2022-11-24T04:03:10;13.37;;;2.37;;
22480;SDS011;11407;56.964;-2.212;2022-11-24T04:05:35;8.63;;;1.80;;
22480;SDS011;11407;56.964;-2.212;2022-11-24T04:08:02;7.30;;;1.90;;
22480;SDS011;11407;56.964;-2.212;2022-11-24T04:10:29;8.27;;;1.97;;
22480;SDS011;11407;56.964;-2.212;2022-11-24T04:12:55;10.97;;;1.90;;
22480;SDS011;11407;56.964;-2.212;2022-11-24T04:15:21;9.17;;;1.87;;
22480;SDS011;11407;56.964;-2.212;2022-11-24T04:17:47;6.90;;;1.73;;
22480;SDS011;11407;56.964;-2.212;2022-11-24T04:20:14;9.83;;;1.93;;
22480;SDS011;11407;56.964;-2.212;2022-11-24T04:22:40;7.17;;;1.20;;
22480;SDS011;11407;56.964;-2.212;2022-11-24T04:25:06;5.63;;;1.33;;
22480;SDS011;11407;56.964;-2.212;2022-11-24T04:27:33;6.07;;;1.30;;
22480;SDS011;11407;56.964;-2.212;2022-11-24T04:30:00;3.37;;;0.97;;
22480;SDS011;11407;56.964;-2.212;2022-11-24T04:32:26;6.00;;;1.20;;
22480;SDS011;11407;56.964;-2.212;2022-11-24T04:34:52;5.03;;;1.47;;
22480;SDS011;11407;56.964;-2.212;2022-11-24T04:37:17;3.87;;;1.37;;
22480;SDS011;11407;56.964;-2.212;2022-11-24T04:39:43;6.27;;;1.43;;
22480;SDS011;11407;56.964;-2.212;2022-11-24T04:42:10;8.03;;;1.60;;
22480;SDS011;11407;56.964;-2.212;2022-11-24T04:44:36;3.97;;;1.30;;
22480;SDS011;11407;56.964;-2.212;2022-11-24T04:47:01;7.17;;;1.10;;
22480;SDS011;11407;56.964;-2.212;2022-11-24T04:49:27;5.70;;;1.50;;
22480;SDS011;11407;56.964;-2.212;2022-11-24T04:51:52;4.87;;;1.37;;
22480;SDS011;11407;56.964;-2.212;2022-11-24T04:54:18;5.43;;;1.50;;
22480;SDS011;11407;56.964;-2.212;2022-11-24T04:56:43;6.13;;;1.67;;
22480;SDS011;11407;56.964;-2.212;2022-11-24T04:59:12;7.90;;;1.33;;
22480;SDS011;11407;56.964;-2.212;2022-11-24T05:01:39;3.93;;;1.20;;
22480;SDS011;11407;56.964;-2.212;2022-11-24T05:04:09;1.20;;;0.80;;
22480;SDS011;11407;56.964;-2.212;2022-11-24T05:06:35;7.13;;;1.23;;
22480;SDS011;11407;56.964;-2.212;2022-11-24T05:09:01;8.60;;;1.70;;
22480;SDS011;11407;56.964;-2.212;2022-11-24T05:11:27;9.13;;;2.63;;
22480;SDS011;11407;56.964;-2.212;2022-11-24T05:13:53;4.50;;;1.00;;
22480;SDS011;11407;56.964;-2.212;2022-11-24T05:16:18;3.13;;;1.17;;
22480;SDS011;11407;56.964;-2.212;2022-11-24T05:18:44;5.73;;;1.20;;
22480;SDS011;11407;56.964;-2.212;2022-11-24T05:21:09;3.73;;;0.90;;
22480;SDS011;11407;56.964;-2.212;2022-11-24T05:23:35;2.93;;;0.93;;
22480;SDS011;11407;56.964;-2.212;2022-11-24T05:26:00;2.70;;;1.00;;
22480;SDS011;11407;56.964;-2.212;2022-11-24T05:28:27;4.13;;;1.33;;
22480;SDS011;11407;56.964;-2.212;2022-11-24T05:30:53;4.37;;;1.33;;
22480;SDS011;11407;56.964;-2.212;2022-11-24T05:33:18;4.90;;;1.27;;
22480;SDS011;11407;56.964;-2.212;2022-11-24T05:35:47;5.57;;;1.17;;
22480;SDS011;11407;56.964;-2.212;2022-11-24T05:38:13;4.50;;;1.37;;
22480;SDS011;11407;56.964;-2.212;2022-11-24T05:40:40;3.90;;;1.27;;
22480;SDS011;11407;56.964;-2.212;2022-11-24T05:43:10;6.30;;;1.53;;
22480;SDS011;11407;56.964;-2.212;2022-11-24T05:45:36;5.87;;;1.60;;
22480;SDS011;11407;56.964;-2.212;2022-11-24T05:48:08;2.23;;;1.20;;
22480;SDS011;11407;56.964;-2.212;2022-11-24T05:50:36;4.57;;;1.10;;
22480;SDS011;11407;56.964;-2.212;2022-11-24T05:53:05;6.30;;;1.30;;
22480;SDS011;11407;56.964;-2.212;2022-11-24T05:55:33;4.27;;;1.23;;
22480;SDS011;11407;56.964;-2.212;2022-11-24T05:58:00;3.87;;;1.00;;
22480;SDS011;11407;56.964;-2.212;2022-11-24T06:00:28;4.80;;;1.10;;
22480;SDS011;11407;56.964;-2.212;2022-11-24T06:02:55;3.23;;;1.10;;
22480;SDS011;11407;56.964;-2.212;2022-11-24T06:05:21;3.73;;;1.03;;
22480;SDS011;11407;56.964;-2.212;2022-11-24T06:07:47;4.83;;;1.30;;
22480;SDS011;11407;56.964;-2.212;2022-11-24T06:10:13;4.80;;;1.30;;
22480;SDS011;11407;56.964;-2.212;2022-11-24T06:12:42;2.53;;;1.00;;
22480;SDS011;11407;56.964;-2.212;2022-11-24T06:15:08;2.60;;;1.00;;
22480;SDS011;11407;56.964;-2.212;2022-11-24T06:17:35;4.70;;;1.20;;
22480;SDS011;11407;56.964;-2.212;2022-11-24T06:20:01;5.13;;;1.23;;
22480;SDS011;11407;56.964;-2.212;2022-11-24T06:22:26;3.60;;;1.20;;
22480;SDS011;11407;56.964;-2.212;2022-11-24T06:24:51;5.27;;;1.10;;
22480;SDS011;11407;56.964;-2.212;2022-11-24T06:27:17;5.63;;;1.30;;
22480;SDS011;11407;56.964;-2.212;2022-11-24T06:29:43;4.73;;;1.10;;
22480;SDS011;11407;56.964;-2.212;2022-11-24T06:32:09;6.73;;;0.80;;
22480;SDS011;11407;56.964;-2.212;2022-11-24T06:34:34;2.83;;;0.80;;
22480;SDS011;11407;56.964;-2.212;2022-11-24T06:37:00;3.00;;;1.03;;
22480;SDS011;11407;56.964;-2.212;2022-11-24T06:39:25;3.43;;;1.03;;
22480;SDS011;11407;56.964;-2.212;2022-11-24T06:41:50;3.90;;;0.90;;
22480;SDS011;11407;56.964;-2.212;2022-11-24T06:44:16;2.33;;;0.90;;
22480;SDS011;11407;56.964;-2.212;2022-11-24T06:46:42;4.20;;;1.00;;
22480;SDS011;11407;56.964;-2.212;2022-11-24T06:49:07;2.27;;;0.80;;
22480;SDS011;11407;56.964;-2.212;2022-11-24T06:51:33;2.77;;;1.10;;
22480;SDS011;11407;56.964;-2.212;2022-11-24T06:53:58;1.97;;;0.73;;
22480;SDS011;11407;56.964;-2.212;2022-11-24T06:56:24;4.43;;;1.00;;
22480;SDS011;11407;56.964;-2.212;2022-11-24T06:58:49;3.03;;;1.10;;
22480;SDS011;11407;56.964;-2.212;2022-11-24T07:01:17;2.40;;;0.90;;
22480;SDS011;11407;56.964;-2.212;2022-11-24T07:03:44;2.73;;;0.80;;
22480;SDS011;11407;56.964;-2.212;2022-11-24T07:06:09;1.53;;;0.70;;
22480;SDS011;11407;56.964;-2.212;2022-11-24T07:08:35;4.77;;;0.80;;
22480;SDS011;11407;56.964;-2.212;2022-11-24T07:11:07;4.63;;;1.03;;
22480;SDS011;11407;56.964;-2.212;2022-11-24T07:13:34;5.40;;;1.00;;
22480;SDS011;11407;56.964;-2.212;2022-11-24T07:16:08;3.33;;;0.80;;
22480;SDS011;11407;56.964;-2.212;2022-11-24T07:18:44;4.60;;;1.00;;
22480;SDS011;11407;56.964;-2.212;2022-11-24T07:21:11;2.17;;;0.80;;
22480;SDS011;11407;56.964;-2.212;2022-11-24T07:23:37;5.83;;;1.00;;
22480;SDS011;11407;56.964;-2.212;2022-11-24T07:26:03;2.13;;;0.70;;
22480;SDS011;11407;56.964;-2.212;2022-11-24T07:28:30;2.33;;;0.90;;
22480;SDS011;11407;56.964;-2.212;2022-11-24T07:30:56;2.20;;;0.70;;
22480;SDS011;11407;56.964;-2.212;2022-11-24T07:33:22;4.23;;;0.87;;
22480;SDS011;11407;56.964;-2.212;2022-11-24T07:35:53;5.20;;;1.00;;
22480;SDS011;11407;56.964;-2.212;2022-11-24T07:38:18;3.60;;;0.97;;
22480;SDS011;11407;56.964;-2.212;2022-11-24T07:40:44;8.13;;;1.13;;
22480;SDS011;11407;56.964;-2.212;2022-11-24T07:43:10;3.30;;;1.00;;
22480;SDS011;11407;56.964;-2.212;2022-11-24T07:45:35;4.23;;;1.10;;
22480;SDS011;11407;56.964;-2.212;2022-11-24T07:48:01;4.07;;;1.37;;
22480;SDS011;11407;56.964;-2.212;2022-11-24T07:50:26;5.80;;;1.83;;
22480;SDS011;11407;56.964;-2.212;2022-11-24T07:52:52;5.00;;;1.87;;
22480;SDS011;11407;56.964;-2.212;2022-11-24T07:55:17;2.33;;;1.30;;
22480;SDS011;11407;56.964;-2.212;2022-11-24T07:57:42;6.37;;;1.40;;
22480;SDS011;11407;56.964;-2.212;2022-11-24T08:00:08;2.87;;;1.33;;
22480;SDS011;11407;56.964;-2.212;2022-11-24T08:02:33;4.60;;;1.10;;
22480;SDS011;11407;56.964;-2.212;2022-11-24T08:04:59;2.77;;;1.10;;
22480;SDS011;11407;56.964;-2.212;2022-11-24T08:07:24;3.80;;;1.00;;
22480;SDS011;11407;56.964;-2.212;2022-11-24T08:09:50;4.30;;;1.10;;
22480;SDS011;11407;56.964;-2.212;2022-11-24T08:12:16;3.10;;;0.93;;
22480;SDS011;11407;56.964;-2.212;2022-11-24T08:14:45;3.07;;;0.90;;
22480;SDS011;11407;56.964;-2.212;2022-11-24T08:17:14;1.47;;;0.80;;
22480;SDS011;11407;56.964;-2.212;2022-11-24T08:19:41;4.63;;;1.03;;
22480;SDS011;11407;56.964;-2.212;2022-11-24T08:22:06;2.13;;;1.00;;
22480;SDS011;11407;56.964;-2.212;2022-11-24T08:24:32;2.13;;;0.90;;
22480;SDS011;11407;56.964;-2.212;2022-11-24T08:26:57;3.17;;;1.03;;
22480;SDS011;11407;56.964;-2.212;2022-11-24T08:29:27;5.13;;;1.37;;
22480;SDS011;11407;56.964;-2.212;2022-11-24T08:31:54;5.03;;;1.00;;
22480;SDS011;11407;56.964;-2.212;2022-11-24T08:34:21;4.13;;;1.30;;
22480;SDS011;11407;56.964;-2.212;2022-11-24T08:36:50;8.70;;;1.47;;
22480;SDS011;11407;56.964;-2.212;2022-11-24T08:39:16;2.53;;;1.00;;
22480;SDS011;11407;56.964;-2.212;2022-11-24T08:41:42;4.50;;;1.00;;
22480;SDS011;11407;56.964;-2.212;2022-11-24T08:44:08;6.80;;;1.77;;
22480;SDS011;11407;56.964;-2.212;2022-11-24T08:46:34;4.03;;;1.10;;
22480;SDS011;11407;56.964;-2.212;2022-11-24T08:49:01;3.57;;;1.20;;
22480;SDS011;11407;56.964;-2.212;2022-11-24T08:51:27;2.87;;;0.90;;
22480;SDS011;11407;56.964;-2.212;2022-11-24T08:53:53;6.83;;;1.10;;
22480;SDS011;11407;56.964;-2.212;2022-11-24T08:56:24;7.37;;;1.50;;
22480;SDS011;11407;56.964;-2.212;2022-11-24T08:58:50;4.00;;;1.27;;
22480;SDS011;11407;56.964;-2.212;2022-11-24T09:01:16;5.30;;;1.30;;
22480;SDS011;11407;56.964;-2.212;2022-11-24T09:03:43;5.50;;;1.00;;
22480;SDS011;11407;56.964;-2.212;2022-11-24T09:06:10;3.80;;;0.90;;
22480;SDS011;11407;56.964;-2.212;2022-11-24T09:08:36;4.80;;;1.30;;
22480;SDS011;11407;56.964;-2.212;2022-11-24T09:11:03;4.37;;;1.30;;
22480;SDS011;11407;56.964;-2.212;2022-11-24T09:13:31;7.13;;;1.40;;
22480;SDS011;11407;56.964;-2.212;2022-11-24T09:16:00;3.57;;;1.50;;
22480;SDS011;11407;56.964;-2.212;2022-11-24T09:18:36;5.13;;;1.20;;
22480;SDS011;11407;56.964;-2.212;2022-11-24T09:21:08;6.43;;;1.40;;
22480;SDS011;11407;56.964;-2.212;2022-11-24T09:23:34;4.93;;;1.40;;
22480;SDS011;11407;56.964;-2.212;2022-11-24T09:26:03;5.17;;;1.37;;
22480;SDS011;11407;56.964;-2.212;2022-11-24T09:28:29;3.67;;;1.10;;
22480;SDS011;11407;56.964;-2.212;2022-11-24T09:30:54;5.20;;;1.40;;
22480;SDS011;11407;56.964;-2.212;2022-11-24T09:33:23;4.87;;;1.30;;
22480;SDS011;11407;56.964;-2.212;2022-11-24T09:35:49;6.73;;;1.33;;
22480;SDS011;11407;56.964;-2.212;2022-11-24T09:38:14;4.70;;;1.13;;
22480;SDS011;11407;56.964;-2.212;2022-11-24T09:40:40;5.33;;;1.27;;
22480;SDS011;11407;56.964;-2.212;2022-11-24T09:43:08;5.63;;;1.17;;
22480;SDS011;11407;56.964;-2.212;2022-11-24T09:45:46;7.03;;;1.13;;
22480;SDS011;11407;56.964;-2.212;2022-11-24T09:50:53;7.00;;;1.30;;
22480;SDS011;11407;56.964;-2.212;2022-11-24T09:56:17;4.53;;;1.10;;
22480;SDS011;11407;56.964;-2.212;2022-11-24T09:58:56;3.97;;;1.00;;
22480;SDS011;11407;56.964;-2.212;2022-11-24T10:01:30;6.63;;;1.43;;
22480;SDS011;11407;56.964;-2.212;2022-11-24T10:03:59;6.67;;;1.50;;
22480;SDS011;11407;56.964;-2.212;2022-11-24T10:06:26;7.07;;;1.87;;
22480;SDS011;11407;56.964;-2.212;2022-11-24T10:19:52;11.37;;;5.03;;
22480;SDS011;11407;56.964;-2.212;2022-11-24T10:25:17;16.00;;;5.10;;
22480;SDS011;11407;56.964;-2.212;2022-11-24T10:27:50;12.20;;;4.73;;
22480;SDS011;11407;56.964;-2.212;2022-11-24T10:30:24;6.97;;;2.87;;
22480;SDS011;11407;56.964;-2.212;2022-11-24T10:33:00;15.33;;;2.80;;
22480;SDS011;11407;56.964;-2.212;2022-11-24T10:35:39;7.87;;;2.30;;
22480;SDS011;11407;56.964;-2.212;2022-11-24T10:40:52;5.57;;;2.00;;
22480;SDS011;11407;56.964;-2.212;2022-11-24T10:43:26;8.27;;;1.77;;
22480;SDS011;11407;56.964;-2.212;2022-11-24T10:45:53;11.43;;;2.70;;
22480;SDS011;11407;56.964;-2.212;2022-11-24T10:48:24;10.20;;;2.03;;
22480;SDS011;11407;56.964;-2.212;2022-11-24T10:50:52;11.30;;;2.50;;
22480;SDS011;11407;56.964;-2.212;2022-11-24T10:58:33;10.50;;;2.03;;
22480;SDS011;11407;56.964;-2.212;2022-11-24T11:01:01;10.37;;;2.20;;
22480;SDS011;11407;56.964;-2.212;2022-11-24T11:03:48;11.23;;;2.30;;
22480;SDS011;11407;56.964;-2.212;2022-11-24T11:06:20;8.87;;;1.90;;
22480;SDS011;11407;56.964;-2.212;2022-11-24T11:09:09;14.27;;;2.53;;
22480;SDS011;11407;56.964;-2.212;2022-11-24T11:11:37;11.03;;;2.10;;
22480;SDS011;11407;56.964;-2.212;2022-11-24T11:14:04;13.60;;;2.37;;
22480;SDS011;11407;56.964;-2.212;2022-11-24T11:16:32;8.30;;;2.13;;
22480;SDS011;11407;56.964;-2.212;2022-11-24T11:18:59;9.30;;;2.33;;
22480;SDS011;11407;56.964;-2.212;2022-11-24T11:21:31;11.07;;;2.07;;
22480;SDS011;11407;56.964;-2.212;2022-11-24T11:23:59;13.13;;;2.13;;
22480;SDS011;11407;56.964;-2.212;2022-11-24T11:26:36;13.03;;;2.50;;
22480;SDS011;11407;56.964;-2.212;2022-11-24T11:31:30;18.67;;;2.73;;
22480;SDS011;11407;56.964;-2.212;2022-11-24T11:36:24;14.37;;;3.00;;
22480;SDS011;11407;56.964;-2.212;2022-11-24T11:38:51;12.90;;;2.80;;
22480;SDS011;11407;56.964;-2.212;2022-11-24T11:41:39;16.77;;;2.63;;
22480;SDS011;11407;56.964;-2.212;2022-11-24T11:46:57;14.70;;;2.87;;
22480;SDS011;11407;56.964;-2.212;2022-11-24T11:49:23;15.10;;;2.80;;
22480;SDS011;11407;56.964;-2.212;2022-11-24T11:51:55;9.97;;;2.60;;
22480;SDS011;11407;56.964;-2.212;2022-11-24T12:00:34;14.00;;;2.70;;
22480;SDS011;11407;56.964;-2.212;2022-11-24T12:03:16;16.83;;;2.90;;
22480;SDS011;11407;56.964;-2.212;2022-11-24T12:08:58;16.27;;;2.50;;
22480;SDS011;11407;56.964;-2.212;2022-11-24T12:16:38;15.47;;;2.80;;
22480;SDS011;11407;56.964;-2.212;2022-11-24T12:19:59;15.97;;;3.10;;
22480;SDS011;11407;56.964;-2.212;2022-11-24T12:26:17;22.20;;;3.33;;
22480;SDS011;11407;56.964;-2.212;2022-11-24T12:28:31;17.03;;;3.10;;
22480;SDS011;11407;56.964;-2.212;2022-11-24T12:31:17;16.33;;;5.07;;
22480;SDS011;11407;56.964;-2.212;2022-11-24T12:37:11;20.00;;;3.23;;
22480;SDS011;11407;56.964;-2.212;2022-11-24T12:45:39;16.47;;;3.47;;
22480;SDS011;11407;56.964;-2.212;2022-11-24T12:50:29;17.43;;;4.30;;
22480;SDS011;11407;56.964;-2.212;2022-11-24T12:55:46;17.57;;;4.67;;
22480;SDS011;11407;56.964;-2.212;2022-11-24T13:06:15;18.30;;;3.53;;
22480;SDS011;11407;56.964;-2.212;2022-11-24T13:08:44;19.80;;;4.03;;
22480;SDS011;11407;56.964;-2.212;2022-11-24T13:13:57;25.33;;;5.13;;
22480;SDS011;11407;56.964;-2.212;2022-11-24T13:16:24;21.50;;;4.10;;
22480;SDS011;11407;56.964;-2.212;2022-11-24T13:18:57;16.73;;;3.80;;
22480;SDS011;11407;56.964;-2.212;2022-11-24T13:23:56;21.27;;;3.57;;
22480;SDS011;11407;56.964;-2.212;2022-11-24T13:26:30;16.83;;;3.87;;
22480;SDS011;11407;56.964;-2.212;2022-11-24T13:42:17;23.20;;;3.80;;
22480;SDS011;11407;56.964;-2.212;2022-11-24T13:50:05;21.40;;;4.47;;
22480;SDS011;11407;56.964;-2.212;2022-11-24T13:57:43;19.90;;;4.07;;
22480;SDS011;11407;56.964;-2.212;2022-11-24T14:00:22;20.10;;;3.70;;
22480;SDS011;11407;56.964;-2.212;2022-11-24T14:02:48;20.70;;;4.23;;
22480;SDS011;11407;56.964;-2.212;2022-11-24T14:05:16;21.67;;;4.23;;
22480;SDS011;11407;56.964;-2.212;2022-11-24T14:07:43;22.00;;;4.27;;
22480;SDS011;11407;56.964;-2.212;2022-11-24T14:10:17;19.77;;;4.40;;
22480;SDS011;11407;56.964;-2.212;2022-11-24T14:12:46;23.43;;;4.37;;
22480;SDS011;11407;56.964;-2.212;2022-11-24T14:15:19;24.13;;;4.17;;
22480;SDS011;11407;56.964;-2.212;2022-11-24T14:17:47;21.77;;;4.23;;
22480;SDS011;11407;56.964;-2.212;2022-11-24T14:20:22;20.40;;;4.03;;
22480;SDS011;11407;56.964;-2.212;2022-11-24T14:22:49;19.90;;;3.90;;
22480;SDS011;11407;56.964;-2.212;2022-11-24T14:25:18;22.73;;;4.23;;
22480;SDS011;11407;56.964;-2.212;2022-11-24T14:27:46;18.57;;;3.87;;
22480;SDS011;11407;56.964;-2.212;2022-11-24T14:32:37;23.77;;;4.60;;
22480;SDS011;11407;56.964;-2.212;2022-11-24T14:37:59;21.00;;;4.10;;
22480;SDS011;11407;56.964;-2.212;2022-11-24T14:43:21;30.27;;;5.03;;
22480;SDS011;11407;56.964;-2.212;2022-11-24T14:45:52;22.47;;;4.37;;
22480;SDS011;11407;56.964;-2.212;2022-11-24T14:48:24;17.80;;;4.20;;
22480;SDS011;11407;56.964;-2.212;2022-11-24T14:50:52;19.60;;;4.10;;
22480;SDS011;11407;56.964;-2.212;2022-11-24T14:53:28;23.37;;;5.00;;
22480;SDS011;11407;56.964;-2.212;2022-11-24T14:56:06;25.87;;;5.33;;
22480;SDS011;11407;56.964;-2.212;2022-11-24T14:58:48;25.10;;;5.70;;
22480;SDS011;11407;56.964;-2.212;2022-11-24T15:03:44;32.80;;;6.37;;
22480;SDS011;11407;56.964;-2.212;2022-11-24T15:06:19;21.77;;;5.23;;
22480;SDS011;11407;56.964;-2.212;2022-11-24T15:08:45;19.97;;;4.50;;
22480;SDS011;11407;56.964;-2.212;2022-11-24T15:11:13;23.03;;;4.57;;
22480;SDS011;11407;56.964;-2.212;2022-11-24T15:13:39;16.57;;;4.47;;
22480;SDS011;11407;56.964;-2.212;2022-11-24T15:16:17;25.00;;;5.23;;
22480;SDS011;11407;56.964;-2.212;2022-11-24T15:18:46;35.57;;;12.10;;
22480;SDS011;11407;56.964;-2.212;2022-11-24T15:21:12;29.10;;;8.13;;
22480;SDS011;11407;56.964;-2.212;2022-11-24T15:23:39;33.40;;;7.77;;
22480;SDS011;11407;56.964;-2.212;2022-11-24T15:28:32;121.67;;;54.90;;
22480;SDS011;11407;56.964;-2.212;2022-11-24T15:33:27;46.87;;;16.43;;
22480;SDS011;11407;56.964;-2.212;2022-11-24T15:35:53;45.87;;;14.83;;
22480;SDS011;11407;56.964;-2.212;2022-11-24T15:38:18;98.50;;;41.93;;
22480;SDS011;11407;56.964;-2.212;2022-11-24T15:40:45;45.97;;;20.40;;
22480;SDS011;11407;56.964;-2.212;2022-11-24T15:46:13;191.57;;;86.50;;
22480;SDS011;11407;56.964;-2.212;2022-11-24T15:48:39;56.50;;;22.90;;
22480;SDS011;11407;56.964;-2.212;2022-11-24T15:51:05;68.10;;;32.13;;
22480;SDS011;11407;56.964;-2.212;2022-11-24T15:53:39;47.63;;;19.60;;
22480;SDS011;11407;56.964;-2.212;2022-11-24T15:56:07;43.87;;;19.60;;
22480;SDS011;11407;56.964;-2.212;2022-11-24T15:58:38;60.07;;;27.80;;
22480;SDS011;11407;56.964;-2.212;2022-11-24T16:01:03;38.43;;;14.33;;
22480;SDS011;11407;56.964;-2.212;2022-11-24T16:03:28;49.47;;;22.43;;
22480;SDS011;11407;56.964;-2.212;2022-11-24T16:05:54;40.67;;;19.83;;
22480;SDS011;11407;56.964;-2.212;2022-11-24T16:08:21;79.80;;;36.20;;
22480;SDS011;11407;56.964;-2.212;2022-11-24T16:10:46;52.87;;;25.80;;
22480;SDS011;11407;56.964;-2.212;2022-11-24T16:13:12;46.23;;;22.07;;
22480;SDS011;11407;56.964;-2.212;2022-11-24T16:15:37;43.40;;;20.17;;
22480;SDS011;11407;56.964;-2.212;2022-11-24T16:18:03;63.80;;;29.53;;
22480;SDS011;11407;56.964;-2.212;2022-11-24T16:20:32;46.00;;;18.97;;
22480;SDS011;11407;56.964;-2.212;2022-11-24T16:23:01;60.20;;;30.20;;
22480;SDS011;11407;56.964;-2.212;2022-11-24T16:25:28;50.57;;;29.20;;
22480;SDS011;11407;56.964;-2.212;2022-11-24T16:27:53;36.33;;;19.80;;
22480;SDS011;11407;56.964;-2.212;2022-11-24T16:30:19;40.80;;;25.10;;
22480;SDS011;11407;56.964;-2.212;2022-11-24T16:32:44;92.87;;;42.17;;
22480;SDS011;11407;56.964;-2.212;2022-11-24T16:35:09;161.30;;;74.03;;
22480;SDS011;11407;56.964;-2.212;2022-11-24T16:37:35;68.13;;;32.33;;
22480;SDS011;11407;56.964;-2.212;2022-11-24T16:40:01;108.23;;;49.50;;